RJOZ(METAR)
02/20 20:00
METAR RJOZ 201100Z 34004KT 9999 FEW020 BKN040 08/02 Q1023 RMK 1CU020
5CU040 A3021=
戻る
トップページへ戻る
IMOC Co,.Ltd.